sensor_id;sensor_type;location;lat;lon;timestamp;temperature;humidity
64918;HTU21D;52176;44.858;38.372;2022-10-31T00:03:47;12.70;89.63
64918;HTU21D;52176;44.858;38.372;2022-10-31T00:06:13;12.70;89.69
64918;HTU21D;52176;44.858;38.372;2022-10-31T00:08:39;12.71;89.73
64918;HTU21D;52176;44.858;38.372;2022-10-31T00:11:08;12.72;89.79
64918;HTU21D;52176;44.858;38.372;2022-10-31T00:13:34;12.73;89.82
64918;HTU21D;52176;44.858;38.372;2022-10-31T00:16:00;12.73;89.87
64918;HTU21D;52176;44.858;38.372;2022-10-31T00:18:25;12.74;89.87
64918;HTU21D;52176;44.858;38.372;2022-10-31T00:20:58;12.74;89.96
64918;HTU21D;52176;44.858;38.372;2022-10-31T00:23:24;12.74;89.95
64918;HTU21D;52176;44.858;38.372;2022-10-31T00:25:49;12.75;90.01
64918;HTU21D;52176;44.858;38.372;2022-10-31T00:28:15;12.76;90.05
64918;HTU21D;52176;44.858;38.372;2022-10-31T00:30:41;12.75;90.08
64918;HTU21D;52176;44.858;38.372;2022-10-31T00:33:07;12.75;90.15
64918;HTU21D;52176;44.858;38.372;2022-10-31T00:35:33;12.76;90.19
64918;HTU21D;52176;44.858;38.372;2022-10-31T00:37:59;12.77;90.21
64918;HTU21D;52176;44.858;38.372;2022-10-31T00:40:25;12.76;90.27
64918;HTU21D;52176;44.858;38.372;2022-10-31T00:42:50;12.76;90.34
64918;HTU21D;52176;44.858;38.372;2022-10-31T00:45:16;12.78;90.40
64918;HTU21D;52176;44.858;38.372;2022-10-31T00:47:42;12.77;90.44
64918;HTU21D;52176;44.858;38.372;2022-10-31T00:50:08;12.77;90.46
64918;HTU21D;52176;44.858;38.372;2022-10-31T00:52:34;12.77;90.55
64918;HTU21D;52176;44.858;38.372;2022-10-31T00:55:00;12.76;90.58
64918;HTU21D;52176;44.858;38.372;2022-10-31T00:57:25;12.78;90.62
64918;HTU21D;52176;44.858;38.372;2022-10-31T00:59:51;12.78;90.66
64918;HTU21D;52176;44.858;38.372;2022-10-31T01:02:17;12.78;90.66
64918;HTU21D;52176;44.858;38.372;2022-10-31T01:04:43;12.78;90.71
64918;HTU21D;52176;44.858;38.372;2022-10-31T01:07:09;12.77;90.75
64918;HTU21D;52176;44.858;38.372;2022-10-31T01:09:37;12.77;90.76
64918;HTU21D;52176;44.858;38.372;2022-10-31T01:12:03;12.77;90.83
64918;HTU21D;52176;44.858;38.372;2022-10-31T01:14:29;12.77;90.89
64918;HTU21D;52176;44.858;38.372;2022-10-31T01:16:56;12.76;90.90
64918;HTU21D;52176;44.858;38.372;2022-10-31T01:19:22;12.75;90.91
64918;HTU21D;52176;44.858;38.372;2022-10-31T01:21:48;12.75;90.92
64918;HTU21D;52176;44.858;38.372;2022-10-31T01:24:14;12.74;90.94
64918;HTU21D;52176;44.858;38.372;2022-10-31T01:26:39;12.74;90.98
64918;HTU21D;52176;44.858;38.372;2022-10-31T01:29:06;12.75;91.02
64918;HTU21D;52176;44.858;38.372;2022-10-31T01:31:36;12.77;91.02
64918;HTU21D;52176;44.858;38.372;2022-10-31T01:34:03;12.77;91.04
64918;HTU21D;52176;44.858;38.372;2022-10-31T01:36:30;12.78;91.05
64918;HTU21D;52176;44.858;38.372;2022-10-31T01:38:57;12.79;91.02
64918;HTU21D;52176;44.858;38.372;2022-10-31T01:41:24;12.80;91.03
64918;HTU21D;52176;44.858;38.372;2022-10-31T01:43:58;12.81;91.03
64918;HTU21D;52176;44.858;38.372;2022-10-31T01:46:28;12.84;90.84
64918;HTU21D;52176;44.858;38.372;2022-10-31T01:48:55;12.80;90.73
64918;HTU21D;52176;44.858;38.372;2022-10-31T01:51:24;12.79;90.80
64918;HTU21D;52176;44.858;38.372;2022-10-31T01:53:51;12.79;90.93
64918;HTU21D;52176;44.858;38.372;2022-10-31T01:56:19;12.80;90.95
64918;HTU21D;52176;44.858;38.372;2022-10-31T01:58:45;12.82;90.96
64918;HTU21D;52176;44.858;38.372;2022-10-31T02:01:15;12.84;90.98
64918;HTU21D;52176;44.858;38.372;2022-10-31T02:03:43;12.85;91.00
64918;HTU21D;52176;44.858;38.372;2022-10-31T02:06:10;12.87;90.99
64918;HTU21D;52176;44.858;38.372;2022-10-31T02:08:39;12.87;91.04
64918;HTU21D;52176;44.858;38.372;2022-10-31T02:11:05;12.87;91.06
64918;HTU21D;52176;44.858;38.372;2022-10-31T02:13:33;12.88;91.09
64918;HTU21D;52176;44.858;38.372;2022-10-31T02:15:59;12.89;91.13
64918;HTU21D;52176;44.858;38.372;2022-10-31T02:18:28;12.90;91.11
64918;HTU21D;52176;44.858;38.372;2022-10-31T02:20:58;12.91;91.13
64918;HTU21D;52176;44.858;38.372;2022-10-31T02:33:51;12.87;91.16
64918;HTU21D;52176;44.858;38.372;2022-10-31T02:36:24;12.87;91.24
64918;HTU21D;52176;44.858;38.372;2022-10-31T02:39:02;12.84;91.23
64918;HTU21D;52176;44.858;38.372;2022-10-31T02:46:57;12.82;91.27
64918;HTU21D;52176;44.858;38.372;2022-10-31T02:49:38;12.86;91.27
64918;HTU21D;52176;44.858;38.372;2022-10-31T02:54:40;12.87;91.27
64918;HTU21D;52176;44.858;38.372;2022-10-31T02:57:07;12.88;91.32
64918;HTU21D;52176;44.858;38.372;2022-10-31T02:59:34;12.87;91.35
64918;HTU21D;52176;44.858;38.372;2022-10-31T03:12:13;12.95;91.53
64918;HTU21D;52176;44.858;38.372;2022-10-31T03:14:43;12.96;91.68
64918;HTU21D;52176;44.858;38.372;2022-10-31T03:17:18;12.99;91.66
64918;HTU21D;52176;44.858;38.372;2022-10-31T03:19:47;13.01;91.76
64918;HTU21D;52176;44.858;38.372;2022-10-31T03:22:17;13.03;91.76
64918;HTU21D;52176;44.858;38.372;2022-10-31T03:24:45;13.05;91.75
64918;HTU21D;52176;44.858;38.372;2022-10-31T03:27:13;13.06;91.71
64918;HTU21D;52176;44.858;38.372;2022-10-31T03:29:40;13.05;91.72
64918;HTU21D;52176;44.858;38.372;2022-10-31T03:32:08;13.04;91.80
64918;HTU21D;52176;44.858;38.372;2022-10-31T03:34:36;13.03;91.79
64918;HTU21D;52176;44.858;38.372;2022-10-31T03:37:03;13.03;91.79
64918;HTU21D;52176;44.858;38.372;2022-10-31T03:39:31;13.02;91.79
64918;HTU21D;52176;44.858;38.372;2022-10-31T03:41:59;13.02;91.82
64918;HTU21D;52176;44.858;38.372;2022-10-31T03:44:26;13.02;91.84
64918;HTU21D;52176;44.858;38.372;2022-10-31T03:46:58;13.01;91.84
64918;HTU21D;52176;44.858;38.372;2022-10-31T03:49:24;13.03;91.82
64918;HTU21D;52176;44.858;38.372;2022-10-31T03:51:58;13.02;91.83
64918;HTU21D;52176;44.858;38.372;2022-10-31T03:54:30;13.02;91.81
64918;HTU21D;52176;44.858;38.372;2022-10-31T03:57:05;12.97;91.82
64918;HTU21D;52176;44.858;38.372;2022-10-31T03:59:33;12.93;91.86
64918;HTU21D;52176;44.858;38.372;2022-10-31T04:02:02;12.88;91.85
64918;HTU21D;52176;44.858;38.372;2022-10-31T04:04:29;12.81;91.90
64918;HTU21D;52176;44.858;38.372;2022-10-31T04:06:55;12.75;91.95
64918;HTU21D;52176;44.858;38.372;2022-10-31T04:09:22;12.66;91.98
64918;HTU21D;52176;44.858;38.372;2022-10-31T04:11:50;12.61;92.02
64918;HTU21D;52176;44.858;38.372;2022-10-31T04:14:36;12.55;92.08
64918;HTU21D;52176;44.858;38.372;2022-10-31T04:17:03;12.51;92.16
64918;HTU21D;52176;44.858;38.372;2022-10-31T04:19:35;12.50;92.17
64918;HTU21D;52176;44.858;38.372;2022-10-31T04:22:01;12.49;92.25
64918;HTU21D;52176;44.858;38.372;2022-10-31T04:24:27;12.52;92.22
64918;HTU21D;52176;44.858;38.372;2022-10-31T04:26:53;12.52;92.21
64918;HTU21D;52176;44.858;38.372;2022-10-31T04:29:22;12.53;92.20
64918;HTU21D;52176;44.858;38.372;2022-10-31T04:31:47;12.52;92.14
64918;HTU21D;52176;44.858;38.372;2022-10-31T04:34:13;12.51;92.11
64918;HTU21D;52176;44.858;38.372;2022-10-31T04:36:40;12.50;92.12
64918;HTU21D;52176;44.858;38.372;2022-10-31T04:39:07;12.49;92.14
64918;HTU21D;52176;44.858;38.372;2022-10-31T04:41:46;12.49;92.14
64918;HTU21D;52176;44.858;38.372;2022-10-31T04:44:15;12.51;92.14
64918;HTU21D;52176;44.858;38.372;2022-10-31T04:46:41;12.52;92.12
64918;HTU21D;52176;44.858;38.372;2022-10-31T04:49:08;12.55;92.14
64918;HTU21D;52176;44.858;38.372;2022-10-31T04:51:35;12.58;92.11
64918;HTU21D;52176;44.858;38.372;2022-10-31T04:54:00;12.59;92.11
64918;HTU21D;52176;44.858;38.372;2022-10-31T04:56:26;12.62;92.05
64918;HTU21D;52176;44.858;38.372;2022-10-31T04:59:01;12.63;91.99
64918;HTU21D;52176;44.858;38.372;2022-10-31T05:01:36;12.65;91.98
64918;HTU21D;52176;44.858;38.372;2022-10-31T05:04:02;12.66;92.02
64918;HTU21D;52176;44.858;38.372;2022-10-31T05:06:30;12.72;92.04
64918;HTU21D;52176;44.858;38.372;2022-10-31T05:08:57;12.81;92.00
64918;HTU21D;52176;44.858;38.372;2022-10-31T05:11:23;12.90;91.90
64918;HTU21D;52176;44.858;38.372;2022-10-31T05:13:49;12.96;91.82
64918;HTU21D;52176;44.858;38.372;2022-10-31T05:16:33;13.05;91.73
64918;HTU21D;52176;44.858;38.372;2022-10-31T05:19:19;13.12;91.59
64918;HTU21D;52176;44.858;38.372;2022-10-31T05:22:20;13.17;91.50
64918;HTU21D;52176;44.858;38.372;2022-10-31T05:24:46;13.21;91.50
64918;HTU21D;52176;44.858;38.372;2022-10-31T05:27:12;13.24;91.50
64918;HTU21D;52176;44.858;38.372;2022-10-31T05:29:38;13.31;91.53
64918;HTU21D;52176;44.858;38.372;2022-10-31T05:32:04;13.39;91.48
64918;HTU21D;52176;44.858;38.372;2022-10-31T05:34:59;13.48;91.31
64918;HTU21D;52176;44.858;38.372;2022-10-31T05:37:48;13.53;91.22
64918;HTU21D;52176;44.858;38.372;2022-10-31T05:40:14;13.60;91.18
64918;HTU21D;52176;44.858;38.372;2022-10-31T05:42:42;13.66;91.20
64918;HTU21D;52176;44.858;38.372;2022-10-31T05:45:09;13.90;91.13
64918;HTU21D;52176;44.858;38.372;2022-10-31T05:47:58;14.28;90.47
64918;HTU21D;52176;44.858;38.372;2022-10-31T05:50:57;14.70;89.80
64918;HTU21D;52176;44.858;38.372;2022-10-31T05:53:24;15.00;89.37
64918;HTU21D;52176;44.858;38.372;2022-10-31T05:55:50;15.29;88.98
64918;HTU21D;52176;44.858;38.372;2022-10-31T05:58:18;15.49;88.73
64918;HTU21D;52176;44.858;38.372;2022-10-31T06:00:53;15.76;88.45
64918;HTU21D;52176;44.858;38.372;2022-10-31T06:03:19;16.05;88.12
64918;HTU21D;52176;44.858;38.372;2022-10-31T06:05:47;16.33;87.73
64918;HTU21D;52176;44.858;38.372;2022-10-31T06:08:12;16.57;87.40
64918;HTU21D;52176;44.858;38.372;2022-10-31T06:10:40;16.75;87.15
64918;HTU21D;52176;44.858;38.372;2022-10-31T06:13:06;16.94;86.90
64918;HTU21D;52176;44.858;38.372;2022-10-31T06:15:44;17.21;86.41
64918;HTU21D;52176;44.858;38.372;2022-10-31T06:18:11;17.26;86.15
64918;HTU21D;52176;44.858;38.372;2022-10-31T06:20:48;17.17;86.06
64918;HTU21D;52176;44.858;38.372;2022-10-31T06:23:15;17.08;86.19
64918;HTU21D;52176;44.858;38.372;2022-10-31T06:25:43;17.03;86.19
64918;HTU21D;52176;44.858;38.372;2022-10-31T06:28:10;16.98;86.00
64918;HTU21D;52176;44.858;38.372;2022-10-31T06:30:51;16.80;86.05
64918;HTU21D;52176;44.858;38.372;2022-10-31T06:33:17;16.77;86.26
64918;HTU21D;52176;44.858;38.372;2022-10-31T06:35:53;16.98;85.98
64918;HTU21D;52176;44.858;38.372;2022-10-31T06:38:20;17.29;85.37
64918;HTU21D;52176;44.858;38.372;2022-10-31T06:40:45;17.69;84.58
64918;HTU21D;52176;44.858;38.372;2022-10-31T06:43:19;18.13;83.67
64918;HTU21D;52176;44.858;38.372;2022-10-31T06:45:44;18.49;82.94
64918;HTU21D;52176;44.858;38.372;2022-10-31T06:48:23;18.85;82.17
64918;HTU21D;52176;44.858;38.372;2022-10-31T06:51:25;19.17;81.30
64918;HTU21D;52176;44.858;38.372;2022-10-31T06:53:51;19.30;80.67
64918;HTU21D;52176;44.858;38.372;2022-10-31T06:56:17;19.39;79.96
64918;HTU21D;52176;44.858;38.372;2022-10-31T06:58:47;19.51;79.62
64918;HTU21D;52176;44.858;38.372;2022-10-31T07:01:14;19.63;79.12
64918;HTU21D;52176;44.858;38.372;2022-10-31T07:03:40;19.83;78.50
64918;HTU21D;52176;44.858;38.372;2022-10-31T07:06:06;20.07;77.85
64918;HTU21D;52176;44.858;38.372;2022-10-31T07:08:32;20.30;77.05
64918;HTU21D;52176;44.858;38.372;2022-10-31T07:10:58;20.55;76.53
64918;HTU21D;52176;44.858;38.372;2022-10-31T07:13:26;20.81;75.73
64918;HTU21D;52176;44.858;38.372;2022-10-31T07:16:01;21.03;74.90
64918;HTU21D;52176;44.858;38.372;2022-10-31T07:18:27;21.27;74.29
64918;HTU21D;52176;44.858;38.372;2022-10-31T07:20:53;21.50;73.70
64918;HTU21D;52176;44.858;38.372;2022-10-31T07:23:20;21.67;72.53
64918;HTU21D;52176;44.858;38.372;2022-10-31T07:25:57;21.82;71.94
64918;HTU21D;52176;44.858;38.372;2022-10-31T07:28:30;21.87;70.74
64918;HTU21D;52176;44.858;38.372;2022-10-31T07:30:57;21.93;70.28
64918;HTU21D;52176;44.858;38.372;2022-10-31T07:33:24;22.05;69.49
64918;HTU21D;52176;44.858;38.372;2022-10-31T07:36:21;22.21;69.09
64918;HTU21D;52176;44.858;38.372;2022-10-31T07:38:47;22.41;68.40
64918;HTU21D;52176;44.858;38.372;2022-10-31T07:41:13;22.31;67.81
64918;HTU21D;52176;44.858;38.372;2022-10-31T07:43:42;22.07;66.78
64918;HTU21D;52176;44.858;38.372;2022-10-31T07:46:14;21.84;66.34
64918;HTU21D;52176;44.858;38.372;2022-10-31T07:49:19;21.93;66.17
64918;HTU21D;52176;44.858;38.372;2022-10-31T07:52:03;22.28;65.21
64918;HTU21D;52176;44.858;38.372;2022-10-31T07:54:47;22.62;63.83
64918;HTU21D;52176;44.858;38.372;2022-10-31T07:57:21;22.94;63.36
64918;HTU21D;52176;44.858;38.372;2022-10-31T07:59:47;23.29;62.60
64918;HTU21D;52176;44.858;38.372;2022-10-31T08:02:16;23.66;61.65
64918;HTU21D;52176;44.858;38.372;2022-10-31T08:04:42;23.79;60.78
64918;HTU21D;52176;44.858;38.372;2022-10-31T08:07:46;23.91;59.97
64918;HTU21D;52176;44.858;38.372;2022-10-31T08:10:17;23.53;58.83
64918;HTU21D;52176;44.858;38.372;2022-10-31T08:12:43;22.95;59.12
64918;HTU21D;52176;44.858;38.372;2022-10-31T08:15:09;22.47;60.35
64918;HTU21D;52176;44.858;38.372;2022-10-31T08:17:36;22.29;60.11
64918;HTU21D;52176;44.858;38.372;2022-10-31T08:20:03;22.35;59.82
64918;HTU21D;52176;44.858;38.372;2022-10-31T08:22:35;22.50;59.87
64918;HTU21D;52176;44.858;38.372;2022-10-31T08:25:01;22.60;59.45
64918;HTU21D;52176;44.858;38.372;2022-10-31T08:27:27;22.63;58.80
64918;HTU21D;52176;44.858;38.372;2022-10-31T08:29:55;22.68;58.12
64918;HTU21D;52176;44.858;38.372;2022-10-31T08:32:22;22.90;58.06
64918;HTU21D;52176;44.858;38.372;2022-10-31T08:35:17;22.84;57.06
64918;HTU21D;52176;44.858;38.372;2022-10-31T08:38:06;22.63;57.63
64918;HTU21D;52176;44.858;38.372;2022-10-31T08:40:33;22.42;57.58
64918;HTU21D;52176;44.858;38.372;2022-10-31T08:43:06;22.03;57.51
64918;HTU21D;52176;44.858;38.372;2022-10-31T08:45:33;21.63;58.13
64918;HTU21D;52176;44.858;38.372;2022-10-31T08:47:59;21.25;58.58
64918;HTU21D;52176;44.858;38.372;2022-10-31T08:50:26;20.89;59.24
64918;HTU21D;52176;44.858;38.372;2022-10-31T08:52:52;20.60;60.11
64918;HTU21D;52176;44.858;38.372;2022-10-31T08:55:18;20.35;60.73
64918;HTU21D;52176;44.858;38.372;2022-10-31T08:58:09;20.06;60.86
64918;HTU21D;52176;44.858;38.372;2022-10-31T09:00:42;19.82;61.31
64918;HTU21D;52176;44.858;38.372;2022-10-31T09:03:16;19.63;61.84
64918;HTU21D;52176;44.858;38.372;2022-10-31T09:05:42;19.67;62.26
64918;HTU21D;52176;44.858;38.372;2022-10-31T09:08:10;20.00;61.96
64918;HTU21D;52176;44.858;38.372;2022-10-31T09:10:37;20.15;61.44
64918;HTU21D;52176;44.858;38.372;2022-10-31T09:13:07;20.16;61.48
64918;HTU21D;52176;44.858;38.372;2022-10-31T09:15:56;20.59;61.21
64918;HTU21D;52176;44.858;38.372;2022-10-31T09:18:23;21.03;60.22
64918;HTU21D;52176;44.858;38.372;2022-10-31T09:20:57;21.42;59.69
64918;HTU21D;52176;44.858;38.372;2022-10-31T09:23:22;21.79;58.95
64918;HTU21D;52176;44.858;38.372;2022-10-31T09:25:49;22.04;58.18
64918;HTU21D;52176;44.858;38.372;2022-10-31T09:28:36;22.29;57.68
64918;HTU21D;52176;44.858;38.372;2022-10-31T09:31:10;22.50;57.41
64918;HTU21D;52176;44.858;38.372;2022-10-31T09:33:48;22.71;57.08
64918;HTU21D;52176;44.858;38.372;2022-10-31T09:36:35;22.93;56.67
64918;HTU21D;52176;44.858;38.372;2022-10-31T09:39:02;23.08;56.33
64918;HTU21D;52176;44.858;38.372;2022-10-31T09:41:33;23.26;55.93
64918;HTU21D;52176;44.858;38.372;2022-10-31T09:49:30;23.57;54.01
64918;HTU21D;52176;44.858;38.372;2022-10-31T09:52:05;23.46;53.37
64918;HTU21D;52176;44.858;38.372;2022-10-31T09:57:05;23.12;53.64
64918;HTU21D;52176;44.858;38.372;2022-10-31T09:59:35;23.06;53.52
64918;HTU21D;52176;44.858;38.372;2022-10-31T10:02:06;22.99;53.68
64918;HTU21D;52176;44.858;38.372;2022-10-31T10:10:14;22.84;53.82
64918;HTU21D;52176;44.858;38.372;2022-10-31T10:25:38;22.25;53.91
64918;HTU21D;52176;44.858;38.372;2022-10-31T10:30:42;21.39;54.70
64918;HTU21D;52176;44.858;38.372;2022-10-31T10:33:14;21.15;55.13
64918;HTU21D;52176;44.858;38.372;2022-10-31T10:35:43;20.98;55.73
64918;HTU21D;52176;44.858;38.372;2022-10-31T10:40:46;21.13;55.23
64918;HTU21D;52176;44.858;38.372;2022-10-31T10:46:34;21.29;54.94
64918;HTU21D;52176;44.858;38.372;2022-10-31T10:51:47;21.55;54.84
64918;HTU21D;52176;44.858;38.372;2022-10-31T10:56:41;21.07;54.65
64918;HTU21D;52176;44.858;38.372;2022-10-31T10:59:11;20.78;55.22
64918;HTU21D;52176;44.858;38.372;2022-10-31T11:01:38;20.75;55.23
64918;HTU21D;52176;44.858;38.372;2022-10-31T11:04:07;20.86;55.17
64918;HTU21D;52176;44.858;38.372;2022-10-31T11:06:38;21.01;54.95
64918;HTU21D;52176;44.858;38.372;2022-10-31T11:09:10;21.06;54.39
64918;HTU21D;52176;44.858;38.372;2022-10-31T11:11:36;21.03;54.11
64918;HTU21D;52176;44.858;38.372;2022-10-31T11:14:11;20.98;54.40
64918;HTU21D;52176;44.858;38.372;2022-10-31T11:16:39;20.90;54.36
64918;HTU21D;52176;44.858;38.372;2022-10-31T11:21:37;20.66;54.71
64918;HTU21D;52176;44.858;38.372;2022-10-31T11:26:29;20.48;54.75
64918;HTU21D;52176;44.858;38.372;2022-10-31T11:28:58;20.32;54.78
64918;HTU21D;52176;44.858;38.372;2022-10-31T11:31:24;20.02;54.91
64918;HTU21D;52176;44.858;38.372;2022-10-31T11:33:53;19.71;55.16
64918;HTU21D;52176;44.858;38.372;2022-10-31T11:36:25;19.46;55.81
64918;HTU21D;52176;44.858;38.372;2022-10-31T11:38:51;19.21;56.32
64918;HTU21D;52176;44.858;38.372;2022-10-31T11:41:30;19.00;56.87
64918;HTU21D;52176;44.858;38.372;2022-10-31T11:44:04;18.82;57.35
64918;HTU21D;52176;44.858;38.372;2022-10-31T11:46:35;18.71;57.56
64918;HTU21D;52176;44.858;38.372;2022-10-31T11:49:01;18.59;57.35
64918;HTU21D;52176;44.858;38.372;2022-10-31T11:51:29;18.49;57.72
64918;HTU21D;52176;44.858;38.372;2022-10-31T11:53:56;18.44;57.93
64918;HTU21D;52176;44.858;38.372;2022-10-31T11:56:23;18.47;58.17
64918;HTU21D;52176;44.858;38.372;2022-10-31T11:58:56;18.47;58.38
64918;HTU21D;52176;44.858;38.372;2022-10-31T12:01:26;18.46;58.74
64918;HTU21D;52176;44.858;38.372;2022-10-31T12:04:00;18.41;59.03
64918;HTU21D;52176;44.858;38.372;2022-10-31T12:06:34;18.42;59.14
64918;HTU21D;52176;44.858;38.372;2022-10-31T12:09:00;18.40;59.16
64918;HTU21D;52176;44.858;38.372;2022-10-31T12:24:42;17.93;60.28
64918;HTU21D;52176;44.858;38.372;2022-10-31T12:35:09;17.29;61.66
64918;HTU21D;52176;44.858;38.372;2022-10-31T12:42:44;16.92;62.66
64918;HTU21D;52176;44.858;38.372;2022-10-31T12:45:20;16.84;62.89
64918;HTU21D;52176;44.858;38.372;2022-10-31T12:50:19;16.73;63.33
64918;HTU21D;52176;44.858;38.372;2022-10-31T12:58:01;16.44;64.19
64918;HTU21D;52176;44.858;38.372;2022-10-31T13:00:29;16.37;64.32
64918;HTU21D;52176;44.858;38.372;2022-10-31T13:02:59;16.33;64.43
64918;HTU21D;52176;44.858;38.372;2022-10-31T13:05:36;16.28;64.57
64918;HTU21D;52176;44.858;38.372;2022-10-31T13:08:05;16.20;64.77
64918;HTU21D;52176;44.858;38.372;2022-10-31T13:10:33;16.16;64.87
64918;HTU21D;52176;44.858;38.372;2022-10-31T13:13:06;16.08;65.01
64918;HTU21D;52176;44.858;38.372;2022-10-31T13:15:45;16.00;65.22
64918;HTU21D;52176;44.858;38.372;2022-10-31T13:18:13;15.93;65.33
64918;HTU21D;52176;44.858;38.372;2022-10-31T13:20:42;15.88;65.31
64918;HTU21D;52176;44.858;38.372;2022-10-31T13:25:55;15.70;65.52
64918;HTU21D;52176;44.858;38.372;2022-10-31T13:28:24;15.58;65.66
64918;HTU21D;52176;44.858;38.372;2022-10-31T13:30:52;15.45;65.82
64918;HTU21D;52176;44.858;38.372;2022-10-31T13:33:26;15.33;65.95
64918;HTU21D;52176;44.858;38.372;2022-10-31T13:36:08;15.24;66.12
64918;HTU21D;52176;44.858;38.372;2022-10-31T13:41:18;15.03;66.27
64918;HTU21D;52176;44.858;38.372;2022-10-31T13:46:25;14.89;66.59
64918;HTU21D;52176;44.858;38.372;2022-10-31T13:48:51;14.84;66.71
64918;HTU21D;52176;44.858;38.372;2022-10-31T13:51:24;14.79;66.82
64918;HTU21D;52176;44.858;38.372;2022-10-31T13:56:21;14.68;67.09
64918;HTU21D;52176;44.858;38.372;2022-10-31T13:59:01;14.60;67.22
64918;HTU21D;52176;44.858;38.372;2022-10-31T14:01:27;14.52;67.35
64918;HTU21D;52176;44.858;38.372;2022-10-31T14:03:59;14.45;67.49
64918;HTU21D;52176;44.858;38.372;2022-10-31T14:06:35;14.40;67.62
64918;HTU21D;52176;44.858;38.372;2022-10-31T14:09:01;14.33;68.04
64918;HTU21D;52176;44.858;38.372;2022-10-31T14:11:27;14.26;68.17
64918;HTU21D;52176;44.858;38.372;2022-10-31T14:13:54;14.19;68.49
64918;HTU21D;52176;44.858;38.372;2022-10-31T14:16:23;14.09;68.72
64918;HTU21D;52176;44.858;38.372;2022-10-31T14:18:59;14.01;68.88
64918;HTU21D;52176;44.858;38.372;2022-10-31T14:21:27;13.95;69.05
64918;HTU21D;52176;44.858;38.372;2022-10-31T14:23:54;13.89;69.16
64918;HTU21D;52176;44.858;38.372;2022-10-31T14:28:49;13.76;69.47
64918;HTU21D;52176;44.858;38.372;2022-10-31T14:39:27;13.50;69.96
64918;HTU21D;52176;44.858;38.372;2022-10-31T14:42:19;13.40;70.28
64918;HTU21D;52176;44.858;38.372;2022-10-31T14:45:23;13.30;70.66
64918;HTU21D;52176;44.858;38.372;2022-10-31T14:47:43;13.20;71.04
64918;HTU21D;52176;44.858;38.372;2022-10-31T14:52:41;13.01;71.34
64918;HTU21D;52176;44.858;38.372;2022-10-31T14:55:10;12.91;71.57
64918;HTU21D;52176;44.858;38.372;2022-10-31T14:57:37;12.81;71.96
64918;HTU21D;52176;44.858;38.372;2022-10-31T15:00:05;12.73;72.03
64918;HTU21D;52176;44.858;38.372;2022-10-31T15:02:56;12.66;72.12
64918;HTU21D;52176;44.858;38.372;2022-10-31T15:05:17;12.56;72.29
64918;HTU21D;52176;44.858;38.372;2022-10-31T15:07:53;12.45;72.43
64918;HTU21D;52176;44.858;38.372;2022-10-31T15:10:21;12.36;72.56
64918;HTU21D;52176;44.858;38.372;2022-10-31T15:12:47;12.28;72.65
64918;HTU21D;52176;44.858;38.372;2022-10-31T15:15:14;12.19;72.73
64918;HTU21D;52176;44.858;38.372;2022-10-31T15:17:43;12.12;72.83
64918;HTU21D;52176;44.858;38.372;2022-10-31T15:20:16;12.05;72.90
64918;HTU21D;52176;44.858;38.372;2022-10-31T15:22:42;11.97;72.96
64918;HTU21D;52176;44.858;38.372;2022-10-31T15:25:17;11.90;73.06
64918;HTU21D;52176;44.858;38.372;2022-10-31T15:27:43;11.84;73.19
64918;HTU21D;52176;44.858;38.372;2022-10-31T15:30:22;11.76;73.32
64918;HTU21D;52176;44.858;38.372;2022-10-31T15:32:48;11.71;73.38
64918;HTU21D;52176;44.858;38.372;2022-10-31T15:37:50;11.67;73.74
64918;HTU21D;52176;44.858;38.372;2022-10-31T15:40:18;11.71;73.85
64918;HTU21D;52176;44.858;38.372;2022-10-31T15:43:03;11.74;73.95
64918;HTU21D;52176;44.858;38.372;2022-10-31T15:45:30;11.78;73.96
64918;HTU21D;52176;44.858;38.372;2022-10-31T15:48:03;11.78;74.08
64918;HTU21D;52176;44.858;38.372;2022-10-31T15:50:31;11.76;74.12
64918;HTU21D;52176;44.858;38.372;2022-10-31T15:52:58;11.75;74.30
64918;HTU21D;52176;44.858;38.372;2022-10-31T15:55:25;11.73;74.31
64918;HTU21D;52176;44.858;38.372;2022-10-31T15:58:10;11.71;74.55
64918;HTU21D;52176;44.858;38.372;2022-10-31T16:00:37;11.68;74.41
64918;HTU21D;52176;44.858;38.372;2022-10-31T16:05:39;11.67;74.50
64918;HTU21D;52176;44.858;38.372;2022-10-31T16:08:20;11.66;74.53
64918;HTU21D;52176;44.858;38.372;2022-10-31T16:10:47;11.64;74.51
64918;HTU21D;52176;44.858;38.372;2022-10-31T16:13:13;11.63;74.54
64918;HTU21D;52176;44.858;38.372;2022-10-31T16:15:46;11.61;74.63
64918;HTU21D;52176;44.858;38.372;2022-10-31T16:18:13;11.60;74.63
64918;HTU21D;52176;44.858;38.372;2022-10-31T16:20:38;11.58;74.73
64918;HTU21D;52176;44.858;38.372;2022-10-31T16:23:04;11.55;74.80
64918;HTU21D;52176;44.858;38.372;2022-10-31T16:25:34;11.51;74.90
64918;HTU21D;52176;44.858;38.372;2022-10-31T16:28:49;11.43;75.01
64918;HTU21D;52176;44.858;38.372;2022-10-31T16:30:49;11.34;75.09
64918;HTU21D;52176;44.858;38.372;2022-10-31T16:33:30;11.26;75.27
64918;HTU21D;52176;44.858;38.372;2022-10-31T16:35:58;11.17;75.40
64918;HTU21D;52176;44.858;38.372;2022-10-31T16:38:25;11.12;75.59
64918;HTU21D;52176;44.858;38.372;2022-10-31T16:40:51;11.04;75.72
64918;HTU21D;52176;44.858;38.372;2022-10-31T16:43:18;10.98;75.87
64918;HTU21D;52176;44.858;38.372;2022-10-31T16:45:48;10.92;76.01
64918;HTU21D;52176;44.858;38.372;2022-10-31T16:48:18;10.84;76.11
64918;HTU21D;52176;44.858;38.372;2022-10-31T16:50:46;10.77;76.26
64918;HTU21D;52176;44.858;38.372;2022-10-31T16:53:13;10.69;76.41
64918;HTU21D;52176;44.858;38.372;2022-10-31T16:55:57;10.65;76.58
64918;HTU21D;52176;44.858;38.372;2022-10-31T16:58:23;10.62;76.73
64918;HTU21D;52176;44.858;38.372;2022-10-31T17:00:50;10.62;76.84
64918;HTU21D;52176;44.858;38.372;2022-10-31T17:03:16;10.62;76.95
64918;HTU21D;52176;44.858;38.372;2022-10-31T17:05:42;10.64;77.12
64918;HTU21D;52176;44.858;38.372;2022-10-31T17:08:08;10.69;77.36
64918;HTU21D;52176;44.858;38.372;2022-10-31T17:10:34;10.73;77.31
64918;HTU21D;52176;44.858;38.372;2022-10-31T17:13:00;10.78;77.30
64918;HTU21D;52176;44.858;38.372;2022-10-31T17:15:28;10.80;77.50
64918;HTU21D;52176;44.858;38.372;2022-10-31T17:17:55;10.81;77.46
64918;HTU21D;52176;44.858;38.372;2022-10-31T17:20:23;10.82;77.55
64918;HTU21D;52176;44.858;38.372;2022-10-31T17:22:49;10.86;77.60
64918;HTU21D;52176;44.858;38.372;2022-10-31T17:25:19;10.86;77.30
64918;HTU21D;52176;44.858;38.372;2022-10-31T17:27:45;10.87;77.17
64918;HTU21D;52176;44.858;38.372;2022-10-31T17:30:12;10.87;76.89
64918;HTU21D;52176;44.858;38.372;2022-10-31T17:32:39;10.87;76.58
64918;HTU21D;52176;44.858;38.372;2022-10-31T17:35:04;10.86;76.42
64918;HTU21D;52176;44.858;38.372;2022-10-31T17:37:30;10.84;76.33
64918;HTU21D;52176;44.858;38.372;2022-10-31T17:39:56;10.83;76.01